Paso de los Libres, Argentina
Current Conditions -  °F | °C
As of 3:00 AM on Wednesday 28 Jan 2015 (Local Time) from SARL Reporting Station
Clear Clear  
Wind Chill: 75°   Ceiling: Unl
Heat Index: 75°   Visibility: 6mi
Dew Point: 73°   Wind: 7mph
Humidity: 94%   Direction: 50°NE
Pressure: 29.77"   Gusts: NA
Location:  29.72°S, 57.08°W
Report Text: SARL 280600Z 05006KT CAVOK 24/23 Q1008
Loading
Personal Weather Stations






























Interactive Weather Map New forecast layout! Learn more

10-Day Weather Forecast

Advertisements
Track Severe Weather on mobile